地図

経路データ

SID SEASON NUMBER BASIN SUBBASIN NAME ISO_TIME NATURE LAT LON WMO_WIND WMO_PRES WMO_AGENCY TRACK_TYPE DIST2LAND LANDFALL IFLAG USA_AGENCY USA_ATCF_ID USA_LAT USA_LON USA_RECORD USA_STATUS USA_WIND USA_PRES USA_SSHS USA_R34_NE USA_R34_SE USA_R34_SW USA_R34_NW USA_R50_NE USA_R50_SE USA_R50_SW USA_R50_NW USA_R64_NE USA_R64_SE USA_R64_SW USA_R64_NW USA_POCI USA_ROCI USA_RMW USA_EYE TOKYO_LAT TOKYO_LON TOKYO_GRADE TOKYO_WIND TOKYO_PRES TOKYO_R50_DIR TOKYO_R50_LONG TOKYO_R50_SHORT TOKYO_R30_DIR TOKYO_R30_LONG TOKYO_R30_SHORT TOKYO_LAND CMA_LAT CMA_LON CMA_CAT CMA_WIND CMA_PRES HKO_LAT HKO_LON HKO_CAT HKO_WIND HKO_PRES NEWDELHI_LAT NEWDELHI_LON NEWDELHI_GRADE NEWDELHI_WIND NEWDELHI_PRES NEWDELHI_CI NEWDELHI_DP NEWDELHI_POCI REUNION_LAT REUNION_LON REUNION_TYPE REUNION_WIND REUNION_PRES REUNION_TNUM REUNION_CI REUNION_RMW REUNION_R34_NE REUNION_R34_SE REUNION_R34_SW REUNION_R34_NW REUNION_R50_NE REUNION_R50_SE REUNION_R50_SW REUNION_R50_NW REUNION_R64_NE REUNION_R64_SE REUNION_R64_SW REUNION_R64_NW BOM_LAT BOM_LON BOM_TYPE BOM_WIND BOM_PRES BOM_TNUM BOM_CI BOM_RMW BOM_R34_NE BOM_R34_SE BOM_R34_SW BOM_R34_NW BOM_R50_NE BOM_R50_SE BOM_R50_SW BOM_R50_NW BOM_R64_NE BOM_R64_SE BOM_R64_SW BOM_R64_NW BOM_ROCI BOM_POCI BOM_EYE BOM_POS_METHOD BOM_PRES_METHOD NADI_LAT NADI_LON NADI_CAT NADI_WIND NADI_PRES WELLINGTON_LAT WELLINGTON_LON WELLINGTON_WIND WELLINGTON_PRES DS824_LAT DS824_LON DS824_STAGE DS824_WIND DS824_PRES TD9636_LAT TD9636_LON TD9636_STAGE TD9636_WIND TD9636_PRES TD9635_LAT TD9635_LON TD9635_WIND TD9635_PRES TD9635_ROCI NEUMANN_LAT NEUMANN_LON NEUMANN_CLASS NEUMANN_WIND NEUMANN_PRES MLC_LAT MLC_LON MLC_CLASS MLC_WIND MLC_PRES USA_GUST BOM_GUST BOM_GUST_PER REUNION_GUST REUNION_GUST_PER USA_SEAHGT USA_SEARAD_NE USA_SEARAD_SE USA_SEARAD_SW USA_SEARAD_NW STORM_SPEED STORM_DIR
1956016S18153 1956 6 SP EA NOT_NAMED 1956-01-15 23:00:00 NR -18.0000 153.000 main 510 510 __________O___ -1 -18.0000 153.000 1 10 1 0
1956016S18153 1956 6 SP EA NOT_NAMED 1956-01-16 00:00:00 TS -18.0092 153.009 main 510 510 O________OP___ jtwc_sh SH101956 -18.0000 153.000 10 -1 -18.0000 153.000 TC 10 -18.0183 153.018 1 1 139
1956016S18153 1956 6 SP EA NOT_NAMED 1956-01-16 03:00:00 TS -18.0597 153.060 main 514 514 P________PP___ SH101956 -18.0500 153.050 12 -1 -18.0500 153.050 TC 12 -18.0727 153.072 1 1 137
1956016S18153 1956 6 SP EA NOT_NAMED 1956-01-16 06:00:00 TS -18.1098 153.110 main 514 514 O________OP___ jtwc_sh SH101956 -18.1000 153.100 15 -1 -18.1000 153.100 TC 15 -18.1245 153.124 1 1 135
1956016S18153 1956 6 SP EA NOT_NAMED 1956-01-16 09:00:00 TS -18.1573 153.157 main 518 518 P________PP___ SH101956 -18.1500 153.150 17 -1 -18.1500 153.150 TC 17 -18.1718 153.172 1 1 135
1956016S18153 1956 6 SP EA NOT_NAMED 1956-01-16 11:00:00 TS -18.1889 153.189 main 518 518 P________PO___ SH101956 -18.1833 153.183 19 -1 -18.1833 153.183 TC 19 -18.2000 153.200 1 1 147
1956016S18153 1956 6 SP EA NOT_NAMED 1956-01-16 12:00:00 TS -18.2043 153.204 main 518 518 O________OP___ jtwc_sh SH101956 -18.2000 153.200 20 -1 -18.2000 153.200 TC 20 -18.2130 153.213 1 1 137
1956016S18153 1956 6 SP EA NOT_NAMED 1956-01-16 15:00:00 TS -18.2463 153.247 main 518 518 P________PP___ SH101956 -18.2425 153.243 20 -1 -18.2425 153.243 TC 20 -18.2539 153.254 1 1 137
1956016S18153 1956 6 SP EA NOT_NAMED 1956-01-16 18:00:00 TS -18.3041 153.304 main 522 522 O________OP___ jtwc_sh SH101956 -18.3000 153.300 20 -1 -18.3000 153.300 TC 20 -18.3124 153.313 1 2 136
1956016S18153 1956 6 SP EA NOT_NAMED 1956-01-16 21:00:00 TS -18.3774 153.378 main 527 524 P________PP___ SH101956 -18.3624 153.363 22 -1 -18.3624 153.363 TC 22 -18.4073 153.408 1 3 136
1956016S18153 1956 6 SP EA NOT_NAMED 1956-01-16 23:00:00 TS -18.4608 153.461 main 524 524 P________PO___ SH101956 -18.4412 153.441 24 -1 -18.4412 153.441 TC 24 -18.5000 153.500 1 4 137
1956016S18153 1956 6 SP EA NOT_NAMED 1956-01-17 00:00:00 TS -18.5220 153.522 main 524 515 O________OP___ jtwc_sh SH101956 -18.5000 153.500 25 -1 -18.5000 153.500 TC 25 -18.5661 153.566 1 7 137
1956016S18153 1956 6 SP EA NOT_NAMED 1956-01-17 03:00:00 TS -18.7869 153.786 main 515 510 P________PP___ SH101956 -18.7776 153.777 27 -1 -18.7776 153.777 TC 27 -18.8056 153.804 1 8 137
1956016S18153 1956 6 SP EA NOT_NAMED 1956-01-17 06:00:00 TS -19.0924 154.092 main 510 509 O________OP___ jtwc_sh SH101956 -19.1000 154.100 30 -1 -19.1000 154.100 TC 30 -19.0773 154.076 1 8 137
1956016S18153 1956 6 SP EA NOT_NAMED 1956-01-17 09:00:00 TS -19.3679 154.368 main 509 509 P________PP___ SH101956 -19.3800 154.380 32 -1 -19.3800 154.380 TC 32 -19.3437 154.343 1 7 137
1956016S18153 1956 6 SP EA NOT_NAMED 1956-01-17 11:00:00 TS -19.5243 154.524 main 509 509 P________PO___ SH101956 -19.5364 154.536 34 0 -19.5364 154.536 TC 34 -19.5000 154.500 2 6 137
1956016S18153 1956 6 SP EA NOT_NAMED 1956-01-17 12:00:00 TS -19.5872 154.587 main 510 510 O________OP___ jtwc_sh SH101956 -19.6000 154.600 35 0 -19.6000 154.600 TC 35 -19.5679 154.568 2 4 137
1956016S18153 1956 6 SP EA NOT_NAMED 1956-01-17 15:00:00 TS -19.7303 154.731 main 511 511 P________PP___ SH101956 -19.7275 154.728 35 0 -19.7275 154.728 TC 35 -19.7330 154.734 2 3 137
1956016S18153 1956 6 SP EA NOT_NAMED 1956-01-17 18:00:00 TS -19.8320 154.833 main 512 512 O________OP___ jtwc_sh SH101956 -19.8000 154.800 35 0 -19.8000 154.800 TC 35 -19.8533 154.854 2 3 137
1956016S18153 1956 6 SP EA NOT_NAMED 1956-01-17 21:00:00 NR -19.9457 154.946 main 514 514 __________P___ SH101956 -1 TC -19.9457 154.946 2 3 137
1956016S18153 1956 6 SP EA NOT_NAMED 1956-01-17 23:00:00 NR -20.0000 155.000 main 517 __________O___ SH101956 -1 TC -20.0000 155.000 2 40 2 133

デジタル台風データ・検索

IBTrACS Databaseについて

本データベースは、米国NOAAが公開する1842年以降の世界の熱帯低気圧のベストトラックデータアーカイブInternational Best Track Archive for Climate Stewardship (IBTrACS)を、ウェブで閲覧しやすい形式に変換したものです。

最終更新日:2021-12-03